Time;durP1;ratioP1;P1;durP2;ratioP2;P2;SDS_P1;SDS_P2;PMS_P1;PMS_P2;Temp;Humidity;BMP_temperature;BMP_pressure;BME280_temperature;BME280_humidity;BME280_pressure;Samples;Min_cycle;Max_cycle;Signal;HPM_P1;HPM_P2
2021/07/26 00:01:29;;;;;;;9.45;5.00;;;;;;;25.13;32.04;98405.03;5073211;28;20036;-89
2021/07/26 00:03:55;;;;;;;8.15;4.95;;;;;;;25.06;31.98;98393.00;5076752;28;20041;-92
2021/07/26 00:06:22;;;;;;;10.00;4.80;;;;;;;25.12;32.54;98395.16;5073715;28;20067;-92
2021/07/26 00:08:48;;;;;;;11.40;5.30;;;;;;;25.05;32.18;98364.09;5077731;28;20040;-93
2021/07/26 00:11:14;;;;;;;9.48;5.05;;;;;;;25.01;31.85;98373.53;5076218;28;20039;-91
2021/07/26 00:13:40;;;;;;;9.98;4.75;;;;;;;25.07;32.18;98374.81;5075664;28;20526;-92
2021/07/26 00:16:06;;;;;;;8.57;4.88;;;;;;;25.20;32.11;98380.88;5072359;28;20075;-90
2021/07/26 00:18:33;;;;;;;8.70;5.10;;;;;;;25.16;31.61;98379.41;5073354;28;20041;-90
2021/07/26 00:21:00;;;;;;;11.98;4.68;;;;;;;25.25;31.59;98381.31;5073379;28;20086;-92
2021/07/26 00:23:28;;;;;;;7.85;4.72;;;;;;;25.28;31.14;98374.72;5079338;28;20070;-91
2021/07/26 00:25:54;;;;;;;8.30;5.20;;;;;;;25.38;31.01;98381.00;5078059;28;20087;-93
2021/07/26 00:28:20;;;;;;;10.65;5.10;;;;;;;25.32;31.12;98373.41;5072745;28;20044;-91
2021/07/26 00:30:46;;;;;;;7.93;4.50;;;;;;;25.49;30.73;98397.19;5074329;28;20071;-92
2021/07/26 00:40:07;;;;;;;8.57;5.30;;;;;;;25.58;30.55;98412.63;5103649;27;20404;-92
2021/07/26 00:42:34;;;;;;;8.45;4.75;;;;;;;25.56;30.90;98411.06;5070812;28;20090;-91
2021/07/26 00:44:59;;;;;;;10.02;5.70;;;;;;;25.51;31.14;98410.66;5068876;28;20067;-92
2021/07/26 00:47:25;;;;;;;8.25;5.30;;;;;;;25.47;30.85;98412.81;5070724;28;20068;-91
2021/07/26 00:49:51;;;;;;;8.73;4.78;;;;;;;25.49;30.76;98418.97;5070473;28;20052;-92
2021/07/26 00:52:17;;;;;;;9.93;5.70;;;;;;;25.46;30.78;98423.81;5070659;28;20048;-92
2021/07/26 00:54:43;;;;;;;8.32;4.97;;;;;;;25.49;31.29;98443.47;5070960;28;20078;-92
2021/07/26 00:57:11;;;;;;;11.77;6.43;;;;;;;25.36;31.46;98424.69;5070519;28;20041;-92
2021/07/26 00:59:37;;;;;;;12.20;5.43;;;;;;;25.41;31.34;98448.75;5070135;28;20064;-91
2021/07/26 01:02:03;;;;;;;9.60;5.22;;;;;;;25.36;31.56;98443.75;5068736;28;20662;-92
2021/07/26 01:04:29;;;;;;;8.30;5.28;;;;;;;25.34;31.56;98448.47;5070129;28;20112;-90
2021/07/26 01:06:56;;;;;;;10.38;5.20;;;;;;;25.18;31.49;98448.16;5069914;28;20037;-93
2021/07/26 01:09:22;;;;;;;10.32;4.97;;;;;;;25.18;31.99;98453.59;5069596;28;20041;-93
2021/07/26 01:11:48;;;;;;;11.10;5.63;;;;;;;25.21;31.88;98461.50;5069859;28;20068;-92
2021/07/26 01:14:15;;;;;;;11.95;5.65;;;;;;;25.07;32.11;98440.09;5069989;28;20036;-93
2021/07/26 01:16:41;;;;;;;7.68;4.82;;;;;;;25.12;32.43;98446.00;5068410;28;20112;-90
2021/07/26 01:19:07;;;;;;;8.20;5.40;;;;;;;24.87;32.47;98423.75;5069765;28;20145;-94
2021/07/26 01:21:35;;;;;;;9.52;5.15;;;;;;;24.84;32.31;98445.81;5069722;28;20037;-91
2021/07/26 01:24:02;;;;;;;7.82;5.50;;;;;;;24.97;32.58;98470.88;5069860;28;20048;-93
2021/07/26 01:26:28;;;;;;;8.80;5.65;;;;;;;24.99;32.53;98481.63;5070393;28;20037;-93
2021/07/26 01:28:56;;;;;;;11.13;5.43;;;;;;;24.89;32.91;98459.84;5069945;28;20045;-91
2021/07/26 01:31:23;;;;;;;11.95;5.60;;;;;;;24.93;32.38;98438.66;5067936;28;20044;-93
2021/07/26 01:33:49;;;;;;;10.10;5.80;;;;;;;24.94;33.60;98443.09;5069695;28;20379;-92
2021/07/26 01:36:16;;;;;;;10.35;6.00;;;;;;;24.78;33.58;98447.22;5069334;28;20041;-92
2021/07/26 01:38:45;;;;;;;9.00;5.43;;;;;;;24.75;33.60;98454.81;5068724;28;20049;-91
2021/07/26 01:41:12;;;;;;;7.47;5.40;;;;;;;24.66;32.96;98432.03;5067028;28;20044;-92
2021/07/26 01:43:50;;;;;;;8.52;5.25;;;;;;;24.66;33.76;98428.44;5069255;28;20120;-93
2021/07/26 01:46:27;;;;;;;8.95;5.72;;;;;;;24.63;33.93;98426.84;5067131;28;20098;-93
2021/07/26 01:49:00;;;;;;;10.38;5.53;;;;;;;24.66;34.22;98428.44;5069357;28;20036;-92
2021/07/26 01:51:32;;;;;;;9.23;5.90;;;;;;;24.55;34.38;98407.69;5048918;28;20073;-90
2021/07/26 01:53:59;;;;;;;9.20;5.60;;;;;;;24.54;34.37;98422.25;5050750;28;20090;-92
2021/07/26 01:56:25;;;;;;;7.88;5.05;;;;;;;24.34;34.81;98408.56;5056208;28;20490;-93
2021/07/26 01:58:51;;;;;;;10.05;6.03;;;;;;;24.27;34.23;98406.56;5056260;28;20041;-90
2021/07/26 02:01:17;;;;;;;9.25;6.07;;;;;;;24.24;34.57;98413.09;5054540;28;20037;-92
2021/07/26 02:03:42;;;;;;;11.45;5.80;;;;;;;24.23;35.27;98414.09;5056484;28;20091;-91
2021/07/26 02:06:08;;;;;;;9.45;5.80;;;;;;;24.12;34.25;98392.47;5056250;28;20040;-92
2021/07/26 02:08:34;;;;;;;10.68;5.80;;;;;;;24.13;34.91;98407.75;5055588;28;20072;-92
2021/07/26 02:11:01;;;;;;;8.45;5.50;;;;;;;24.14;35.27;98414.94;5055581;28;20124;-91
2021/07/26 02:13:27;;;;;;;10.57;5.85;;;;;;;24.02;35.15;98399.72;5052187;28;20043;-93
2021/07/26 02:15:53;;;;;;;10.15;6.53;;;;;;;24.09;35.16;98419.91;5054631;28;20033;-92
2021/07/26 02:18:19;;;;;;;12.45;6.07;;;;;;;24.10;34.68;98433.34;5055538;28;20661;-92
2021/07/26 02:20:45;;;;;;;9.63;5.90;;;;;;;24.34;33.81;98449.34;5056019;28;20110;-92
2021/07/26 02:23:10;;;;;;;10.25;6.18;;;;;;;24.44;34.15;98453.94;5055979;28;20041;-93
2021/07/26 02:25:39;;;;;;;11.50;6.22;;;;;;;24.60;33.67;98467.94;5055620;28;20525;-93
2021/07/26 02:28:08;;;;;;;8.07;5.78;;;;;;;24.77;33.39;98486.31;5055668;28;20040;-93
2021/07/26 02:30:33;;;;;;;9.63;6.70;;;;;;;24.85;33.16;98490.19;5054152;28;20037;-92
2021/07/26 02:32:59;;;;;;;10.50;6.05;;;;;;;24.95;32.84;98494.66;5055499;28;20037;-89
2021/07/26 02:35:27;;;;;;;14.32;6.47;;;;;;;24.98;32.75;98488.94;5055511;28;20278;-92
2021/07/26 02:37:58;;;;;;;8.07;5.30;;;;;;;24.98;33.05;98458.13;5054994;28;20037;-92
2021/07/26 02:40:25;;;;;;;13.63;6.50;;;;;;;24.88;33.51;98439.09;5055045;28;20041;-92
2021/07/26 02:42:50;;;;;;;9.50;6.40;;;;;;;24.86;33.71;98443.81;5055377;28;20045;-92
2021/07/26 02:45:18;;;;;;;11.85;6.15;;;;;;;24.79;33.98;98440.78;5054179;28;20071;-91
2021/07/26 02:47:43;;;;;;;8.90;5.75;;;;;;;24.67;33.81;98430.16;5054974;28;20395;-91
2021/07/26 02:50:12;;;;;;;10.68;5.85;;;;;;;24.70;34.01;98440.75;5054748;28;20049;-92
2021/07/26 02:52:37;;;;;;;11.63;6.60;;;;;;;24.59;34.29;98426.28;5054952;28;20064;-90
2021/07/26 02:55:04;;;;;;;10.55;6.47;;;;;;;24.58;34.26;98431.84;5054691;28;20159;-92
2021/07/26 02:57:32;;;;;;;12.35;5.65;;;;;;;24.78;33.66;98460.81;5055173;28;20043;-93
2021/07/26 02:59:58;;;;;;;10.83;5.77;;;;;;;24.81;33.97;98456.97;5053207;28;20041;-91
2021/07/26 03:02:25;;;;;;;8.85;6.10;;;;;;;24.82;34.12;98457.84;5054023;28;20274;-91
2021/07/26 03:04:51;;;;;;;11.60;5.95;;;;;;;24.80;34.17;98450.66;5054740;28;20045;-93
2021/07/26 03:07:17;;;;;;;9.98;5.97;;;;;;;24.74;34.05;98445.78;5054414;28;20037;-92
2021/07/26 03:09:43;;;;;;;9.23;5.80;;;;;;;24.89;34.29;98453.53;5054809;28;20053;-92
2021/07/26 03:12:09;;;;;;;11.52;6.30;;;;;;;24.87;34.11;98428.34;5054811;28;20466;-92
2021/07/26 03:14:35;;;;;;;12.43;5.72;;;;;;;24.88;33.95;98420.06;5054492;28;20033;-92
2021/07/26 03:17:02;;;;;;;10.38;5.93;;;;;;;24.89;34.11;98432.63;5052349;28;20037;-91
2021/07/26 03:19:29;;;;;;;10.52;5.78;;;;;;;24.89;34.41;98437.22;5054358;28;20033;-94
2021/07/26 03:22:42;;;;;;;16.05;6.65;;;;;;;24.93;34.67;98433.22;5054360;28;20037;-92
2021/07/26 03:25:08;;;;;;;10.05;6.20;;;;;;;24.93;34.45;98433.22;4986767;28;20108;-92
2021/07/26 03:27:35;;;;;;;9.48;5.65;;;;;;;24.89;35.21;98424.47;4992565;28;20049;-92
2021/07/26 03:30:01;;;;;;;12.43;6.07;;;;;;;24.89;35.15;98423.63;4991069;28;20085;-93
2021/07/26 03:32:27;;;;;;;9.70;6.43;;;;;;;24.88;35.51;98425.50;4993237;28;20136;-93
2021/07/26 03:34:54;;;;;;;9.98;5.78;;;;;;;24.87;35.57;98417.47;4992665;28;20043;-93
2021/07/26 03:37:19;;;;;;;10.75;6.35;;;;;;;24.80;35.67;98398.13;4992992;28;20054;-92
2021/07/26 03:39:45;;;;;;;12.13;6.13;;;;;;;24.85;36.01;98389.56;4992693;28;20519;-92
2021/07/26 03:42:11;;;;;;;12.38;5.85;;;;;;;24.89;36.41;98404.59;4992969;28;20042;-92
2021/07/26 03:44:37;;;;;;;12.75;5.90;;;;;;;24.88;36.71;98400.16;4992973;28;20093;-92
2021/07/26 03:47:03;;;;;;;9.10;6.03;;;;;;;24.93;36.76;98397.88;4990963;28;20051;-92
2021/07/26 03:49:29;;;;;;;13.13;6.43;;;;;;;24.89;36.87;98375.53;4992677;28;20066;-91
2021/07/26 03:51:56;;;;;;;13.27;6.43;;;;;;;24.88;36.69;98360.22;4992213;28;20536;-90
2021/07/26 03:54:22;;;;;;;10.18;6.40;;;;;;;24.96;36.97;98376.69;4992484;28;20038;-92
2021/07/26 03:56:48;;;;;;;10.00;6.28;;;;;;;24.89;37.26;98391.84;4991616;28;20042;-93
2021/07/26 03:59:14;;;;;;;8.07;5.63;;;;;;;24.91;37.53;98402.59;5030797;28;20087;-91
2021/07/26 04:01:39;;;;;;;12.85;6.53;;;;;;;24.80;38.27;98392.69;5052134;28;20394;-93
2021/07/26 04:04:05;;;;;;;10.70;6.20;;;;;;;24.58;38.49;98369.34;5053955;28;20044;-92
2021/07/26 04:06:31;;;;;;;11.23;6.32;;;;;;;24.58;39.06;98374.78;5053828;28;20041;-92
2021/07/26 04:09:00;;;;;;;9.65;5.95;;;;;;;24.39;39.65;98360.09;5054221;28;20045;-91
2021/07/26 04:14:28;;;;;;;13.32;6.38;;;;;;;24.25;40.37;98371.38;5132252;27;20356;-92
2021/07/26 04:16:54;;;;;;;13.88;6.30;;;;;;;24.31;39.58;98392.56;5130924;27;20043;-93
2021/07/26 04:19:20;;;;;;;10.75;6.80;;;;;;;24.48;38.82;98406.47;5131875;27;20104;-91
2021/07/26 04:21:46;;;;;;;11.43;6.18;;;;;;;24.61;38.61;98423.41;5131957;27;20035;-92
2021/07/26 04:24:11;;;;;;;14.52;6.85;;;;;;;24.76;38.13;98429.31;5132035;27;20041;-91
2021/07/26 04:26:37;;;;;;;8.77;5.78;;;;;;;25.01;37.38;98442.41;5131877;27;20058;-94
2021/07/26 04:29:03;;;;;;;11.13;6.53;;;;;;;25.21;37.22;98475.13;5132234;27;20040;-91
2021/07/26 04:31:30;;;;;;;11.23;5.82;;;;;;;25.29;37.16;98496.19;5130565;28;20389;-92
2021/07/26 04:33:56;;;;;;;11.15;6.97;;;;;;;25.37;37.28;98513.53;5131159;27;20043;-92
2021/07/26 04:36:22;;;;;;;10.55;6.22;;;;;;;25.37;37.56;98539.88;5131714;27;20039;-91
2021/07/26 04:38:48;;;;;;;11.18;6.50;;;;;;;25.37;37.61;98567.09;5131980;27;20043;-93
2021/07/26 04:41:13;;;;;;;12.98;6.38;;;;;;;25.38;38.19;98533.44;5132735;28;20035;-93
2021/07/26 04:43:39;;;;;;;13.13;6.40;;;;;;;25.45;38.34;98518.25;5131858;27;20046;-93
2021/07/26 04:46:09;;;;;;;11.48;6.43;;;;;;;25.50;39.17;98534.16;5129970;27;20035;-93
2021/07/26 04:48:36;;;;;;;13.43;6.78;;;;;;;25.38;41.81;98545.19;5132351;27;20381;-94
2021/07/26 04:51:02;;;;;;;11.65;6.25;;;;;;;25.24;41.06;98528.41;5116962;28;20031;-92
2021/07/26 04:53:31;;;;;;;10.38;6.80;;;;;;;25.26;40.98;98553.59;5132323;27;20043;-91
2021/07/26 04:55:57;;;;;;;13.23;6.15;;;;;;;25.20;40.15;98527.84;5134421;27;20036;-92
2021/07/26 04:58:23;;;;;;;15.60;6.70;;;;;;;25.09;39.98;98517.91;5132161;27;20031;-92
2021/07/26 05:00:48;;;;;;;11.73;6.22;;;;;;;25.19;40.05;98535.09;5134879;27;20085;-93
2021/07/26 05:03:14;;;;;;;9.40;5.88;;;;;;;25.25;39.53;98511.94;5131134;28;20046;-92
2021/07/26 05:05:41;;;;;;;11.27;6.15;;;;;;;25.32;39.55;98510.34;5130857;27;20101;-91
2021/07/26 05:08:07;;;;;;;11.35;6.07;;;;;;;25.50;39.24;98520.53;5130591;27;20047;-91
2021/07/26 05:10:33;;;;;;;11.32;6.50;;;;;;;25.56;39.11;98504.50;5131123;27;20528;-93
2021/07/26 05:12:59;;;;;;;11.40;6.28;;;;;;;25.70;38.72;98514.13;5130409;27;20043;-92
2021/07/26 05:15:25;;;;;;;11.05;6.22;;;;;;;25.83;38.34;98498.34;5129036;27;20067;-92
2021/07/26 05:17:51;;;;;;;11.45;6.25;;;;;;;25.96;38.25;98491.75;5130471;27;20063;-92
2021/07/26 05:20:17;;;;;;;10.90;6.20;;;;;;;26.07;38.54;98479.81;5131065;27;20063;-91
2021/07/26 05:22:44;;;;;;;9.57;6.32;;;;;;;26.26;38.67;98508.91;5130589;27;20453;-90
2021/07/26 05:25:10;;;;;;;10.65;6.18;;;;;;;26.37;39.29;98497.81;5120163;27;20053;-92
2021/07/26 05:27:36;;;;;;;10.25;6.03;;;;;;;26.54;38.66;98483.41;5116706;28;20036;-92
2021/07/26 05:30:03;;;;;;;14.57;6.97;;;;;;;26.68;38.15;98476.63;5115096;28;20031;-90
2021/07/26 05:32:29;;;;;;;12.68;6.28;;;;;;;26.85;37.03;98472.25;5116650;27;20040;-92
2021/07/26 05:34:55;;;;;;;11.90;6.53;;;;;;;27.31;35.87;98483.19;5116662;28;20040;-91
2021/07/26 05:37:21;;;;;;;13.23;6.28;;;;;;;27.56;35.80;98460.53;5116979;28;20127;-92
2021/07/26 05:39:48;;;;;;;11.38;6.78;;;;;;;27.63;35.64;98433.47;5116789;28;20040;-88
2021/07/26 05:42:16;;;;;;;13.27;6.25;;;;;;;27.64;36.03;98429.72;5116621;28;20070;-93
2021/07/26 05:44:43;;;;;;;13.20;6.63;;;;;;;27.43;37.42;98427.31;5116428;28;20036;-92
2021/07/26 05:47:10;;;;;;;13.25;6.50;;;;;;;27.12;37.40;98408.56;5115320;28;20089;-92
2021/07/26 05:49:36;;;;;;;11.85;6.75;;;;;;;27.09;37.44;98417.09;5116653;28;20136;-92
2021/07/26 05:52:02;;;;;;;16.10;6.35;;;;;;;26.93;38.03;98417.75;5116886;28;20049;-92
2021/07/26 05:54:28;;;;;;;13.07;6.60;;;;;;;26.83;38.08;98397.88;5116862;28;20040;-91
2021/07/26 05:56:55;;;;;;;12.25;6.35;;;;;;;26.76;38.18;98386.72;5116109;28;20081;-92
2021/07/26 05:59:21;;;;;;;13.68;6.30;;;;;;;26.69;37.42;98401.97;5116791;28;20036;-92
2021/07/26 06:01:47;;;;;;;10.05;5.93;;;;;;;26.93;37.16;98406.84;5114741;28;20431;-94
2021/07/26 06:04:15;;;;;;;13.65;6.72;;;;;;;26.93;36.34;98387.72;5116139;28;20035;-94
2021/07/26 06:06:41;;;;;;;12.57;6.35;;;;;;;27.11;36.52;98387.75;5116526;28;20067;-93
2021/07/26 06:09:07;;;;;;;17.13;6.38;;;;;;;27.55;35.85;98387.81;5116476;28;20057;-92
2021/07/26 06:11:33;;;;;;;13.65;6.13;;;;;;;28.09;34.60;98386.84;5116626;28;20122;-94
2021/07/26 06:14:01;;;;;;;10.70;6.47;;;;;;;28.49;34.35;98396.28;5116067;28;20056;-89
2021/07/26 06:16:26;;;;;;;9.98;5.80;;;;;;;28.57;34.38;98391.72;5116291;28;20040;-92
2021/07/26 06:18:52;;;;;;;9.93;5.97;;;;;;;28.59;34.33;98392.41;5116439;28;20109;-94
2021/07/26 06:21:18;;;;;;;11.13;6.30;;;;;;;28.57;32.89;98391.72;5115980;28;20035;-92
2021/07/26 06:23:44;;;;;;;15.73;6.20;;;;;;;28.81;33.23;98392.81;5116883;28;20032;-94
2021/07/26 06:26:10;;;;;;;9.55;6.25;;;;;;;29.16;33.12;98394.47;5117006;28;20560;-94
2021/07/26 06:28:36;;;;;;;11.93;6.10;;;;;;;29.45;32.33;98393.09;5117710;28;20039;-94
2021/07/26 06:31:03;;;;;;;14.00;5.72;;;;;;;29.99;31.02;98434.53;5115738;28;20434;-93
2021/07/26 06:33:30;;;;;;;10.93;6.35;;;;;;;30.29;31.06;98440.34;5116169;28;20032;-93
2021/07/26 06:35:56;;;;;;;10.82;5.75;;;;;;;29.95;30.73;98433.22;5115658;27;20411;-94
2021/07/26 06:38:22;;;;;;;10.82;6.00;;;;;;;29.48;31.22;98425.66;5116297;28;20044;-94
2021/07/26 06:40:49;;;;;;;12.45;5.85;;;;;;;29.20;31.00;98444.28;5115873;28;20039;-94
2021/07/26 06:43:15;;;;;;;11.82;5.82;;;;;;;29.03;31.70;98430.50;5116399;28;20058;-93
2021/07/26 06:45:41;;;;;;;13.00;6.50;;;;;;;28.95;31.99;98432.34;5114496;28;20130;-92
2021/07/26 06:48:08;;;;;;;11.77;6.22;;;;;;;28.97;31.38;98454.94;5115481;28;20070;-95
2021/07/26 06:50:34;;;;;;;11.10;6.07;;;;;;;29.22;31.00;98448.56;5116521;28;20027;-94
2021/07/26 06:53:00;;;;;;;11.85;6.03;;;;;;;29.59;30.67;98471.03;5116293;28;20042;-93
2021/07/26 06:55:26;;;;;;;10.75;6.13;;;;;;;29.60;30.50;98457.16;5117459;28;20066;-94
2021/07/26 06:57:52;;;;;;;12.00;6.40;;;;;;;29.49;30.91;98460.22;5117370;28;20035;-92
2021/07/26 07:00:18;;;;;;;11.43;5.70;;;;;;;29.45;31.09;98469.81;5114667;28;20054;-93
2021/07/26 07:02:44;;;;;;;9.30;5.53;;;;;;;29.41;32.39;98471.19;5116329;28;20023;-93
2021/07/26 07:05:11;;;;;;;13.23;5.78;;;;;;;29.20;31.27;98466.19;5116958;28;20095;-93
2021/07/26 07:07:37;;;;;;;12.98;5.65;;;;;;;29.20;30.74;98477.97;5117362;28;20031;-93
2021/07/26 07:10:04;;;;;;;11.35;6.10;;;;;;;29.25;30.72;98477.47;5115658;28;20096;-93
2021/07/26 07:12:30;;;;;;;18.17;6.32;;;;;;;29.23;31.50;98491.34;5115826;28;20121;-91
2021/07/26 07:15:03;;;;;;;17.17;7.10;;;;;;;29.32;31.41;98473.06;5114094;28;20047;-94
2021/07/26 07:17:30;;;;;;;14.35;6.50;;;;;;;29.70;30.67;98489.91;5115140;28;20061;-91
2021/07/26 07:19:57;;;;;;;10.73;6.03;;;;;;;29.90;30.09;98490.41;5115524;28;20038;-93
2021/07/26 07:22:24;;;;;;;14.93;6.40;;;;;;;30.42;30.24;98495.53;5113987;28;20130;-91
2021/07/26 07:24:50;;;;;;;13.98;6.10;;;;;;;30.75;29.10;98480.84;5116178;28;20063;-94
2021/07/26 07:27:16;;;;;;;10.68;5.72;;;;;;;30.60;28.29;98494.44;5116651;27;20048;-93
2021/07/26 07:29:41;;;;;;;12.88;5.82;;;;;;;30.57;28.47;98495.66;5115121;28;20036;-93
2021/07/26 07:32:12;;;;;;;14.95;5.88;;;;;;;30.52;28.93;98510.97;5115163;28;20043;-93
2021/07/26 07:34:38;;;;;;;12.70;5.65;;;;;;;30.60;27.93;98510.91;5116673;28;20044;-93
2021/07/26 07:37:05;;;;;;;10.82;5.72;;;;;;;30.38;27.95;98507.03;5117043;28;20126;-93
2021/07/26 07:39:33;;;;;;;10.50;5.90;;;;;;;30.27;27.82;98513.69;5117061;28;20127;-92
2021/07/26 07:41:58;;;;;;;11.68;5.80;;;;;;;30.07;27.95;98538.75;5115492;28;20112;-93
2021/07/26 07:44:29;;;;;;;10.70;5.47;;;;;;;29.94;28.22;98562.22;5115334;28;20039;-92
2021/07/26 07:46:55;;;;;;;12.70;5.60;;;;;;;29.80;27.92;98575.56;5114740;28;20452;-92
2021/07/26 07:49:21;;;;;;;12.50;5.90;;;;;;;29.88;28.41;98570.13;5115140;28;20404;-91
2021/07/26 07:51:48;;;;;;;11.68;5.60;;;;;;;30.16;27.81;98586.22;5114650;28;20031;-92
2021/07/26 07:54:14;;;;;;;11.02;6.30;;;;;;;30.47;28.58;98597.41;5114505;28;20105;-91
2021/07/26 07:56:42;;;;;;;11.70;6.07;;;;;;;30.76;27.84;98597.88;5114585;28;20499;-91
2021/07/26 07:59:10;;;;;;;15.85;5.88;;;;;;;30.46;27.88;98597.56;5115224;28;20040;-93
2021/07/26 08:01:36;;;;;;;11.27;5.55;;;;;;;30.14;28.40;98590.16;5114780;27;20089;-93
2021/07/26 08:04:07;;;;;;;11.95;5.93;;;;;;;30.44;28.38;98589.50;5114367;28;20669;-92
2021/07/26 08:06:34;;;;;;;11.13;5.32;;;;;;;30.60;28.97;98582.28;5111927;27;20044;-92
2021/07/26 08:09:00;;;;;;;11.27;6.00;;;;;;;30.70;28.56;98593.91;5114685;28;20047;-93
2021/07/26 08:11:26;;;;;;;12.10;6.43;;;;;;;30.82;28.07;98598.03;5115049;28;20607;-91
2021/07/26 08:13:53;;;;;;;9.77;6.05;;;;;;;31.00;28.55;98613.47;5107770;28;20055;-94
2021/07/26 08:16:22;;;;;;;10.98;6.20;;;;;;;30.97;27.61;98606.44;5115364;28;20036;-94
2021/07/26 08:18:48;;;;;;;13.18;6.28;;;;;;;30.91;27.92;98597.00;5115813;28;20051;-94
2021/07/26 08:21:17;;;;;;;10.80;6.20;;;;;;;30.57;28.39;98616.41;5111062;28;20443;-95
2021/07/26 08:23:43;;;;;;;17.05;6.75;;;;;;;30.33;28.92;98592.59;5116142;28;20500;-94
2021/07/26 08:26:12;;;;;;;14.10;6.40;;;;;;;29.86;29.94;98602.31;5116166;28;20127;-93
2021/07/26 08:28:38;;;;;;;15.18;6.22;;;;;;;30.15;29.98;98622.91;5114992;28;20176;-94
2021/07/26 08:31:05;;;;;;;13.75;6.07;;;;;;;30.44;29.86;98624.31;5115074;28;20040;-94
2021/07/26 08:33:31;;;;;;;14.63;6.60;;;;;;;30.35;29.54;98617.97;5114319;28;20040;-93
2021/07/26 08:35:57;;;;;;;16.52;6.53;;;;;;;30.24;29.82;98619.13;5115437;28;20099;-93
2021/07/26 08:38:23;;;;;;;12.20;6.15;;;;;;;30.28;30.20;98630.66;5112500;28;20509;-95
2021/07/26 08:40:49;;;;;;;16.05;6.25;;;;;;;30.10;31.11;98622.53;5115711;28;20067;-92
2021/07/26 08:43:15;;;;;;;20.05;7.13;;;;;;;30.01;31.14;98635.38;5111608;28;20032;-92
2021/07/26 08:45:42;;;;;;;15.55;6.75;;;;;;;29.98;32.45;98648.59;5114642;28;20046;-93
2021/07/26 08:48:10;;;;;;;15.10;7.07;;;;;;;29.87;32.91;98656.09;5116086;28;20075;-93
2021/07/26 08:50:37;;;;;;;13.38;6.85;;;;;;;29.74;33.10;98644.75;5113526;28;20070;-94
2021/07/26 08:53:08;;;;;;;16.52;7.05;;;;;;;29.50;33.15;98645.50;5114861;28;20035;-93
2021/07/26 08:55:35;;;;;;;10.48;5.95;;;;;;;29.27;33.09;98640.59;5115318;28;20094;-93
2021/07/26 08:58:02;;;;;;;18.05;6.18;;;;;;;29.04;34.45;98633.97;5112290;28;20509;-93
2021/07/26 09:00:28;;;;;;;16.50;6.45;;;;;;;28.93;36.62;98640.59;5117292;28;20040;-93
2021/07/26 09:02:54;;;;;;;15.13;6.63;;;;;;;28.81;34.34;98642.72;5118427;28;20153;-92
2021/07/26 09:05:22;;;;;;;14.32;7.32;;;;;;;28.79;35.60;98646.63;5117561;28;20039;-93
2021/07/26 09:07:49;;;;;;;12.38;6.43;;;;;;;28.68;34.83;98637.66;5118128;28;20051;-93
2021/07/26 09:10:16;;;;;;;16.75;6.05;;;;;;;28.73;33.54;98653.59;5117856;27;20038;-92
2021/07/26 09:12:43;;;;;;;12.25;6.00;;;;;;;28.78;34.11;98656.72;5115058;28;20464;-93
2021/07/26 09:15:24;;;;;;;14.95;6.07;;;;;;;28.80;33.75;98645.59;5117155;28;20044;-93
2021/07/26 09:17:51;;;;;;;13.05;5.88;;;;;;;28.78;33.12;98658.59;5112380;28;20051;-92
2021/07/26 09:20:18;;;;;;;13.27;6.38;;;;;;;28.70;33.34;98650.34;5117047;28;20066;-93
2021/07/26 09:22:47;;;;;;;15.38;6.72;;;;;;;28.39;33.30;98632.47;5117595;28;20047;-94
2021/07/26 09:25:14;;;;;;;;;;;;;;;28.40;34.16;98658.78;5111379;28;20039;-96
2021/07/26 09:27:56;;;;;;;18.13;6.63;;;;;;;28.33;34.09;98637.72;5119552;27;19966;-92
2021/07/26 09:30:22;;;;;;;13.05;6.32;;;;;;;28.26;33.74;98641.06;5117485;28;20050;-92
2021/07/26 09:32:48;;;;;;;9.95;6.07;;;;;;;28.23;35.18;98649.56;5116685;28;20039;-93
2021/07/26 09:35:14;;;;;;;14.70;6.20;;;;;;;28.26;38.68;98660.22;5117601;27;20048;-93
2021/07/26 09:37:41;;;;;;;14.65;6.20;;;;;;;28.04;39.02;98647.88;5116074;27;20396;-92
2021/07/26 09:40:22;;;;;;;16.13;6.40;;;;;;;27.96;38.33;98669.66;5118600;27;20035;-93
2021/07/26 09:42:48;;;;;;;18.00;6.70;;;;;;;27.79;39.63;98668.56;5115174;27;20039;-93
2021/07/26 09:45:21;;;;;;;16.63;7.90;;;;;;;27.73;41.25;98665.59;5116049;28;20050;-93
2021/07/26 09:48:07;;;;;;;15.18;6.50;;;;;;;27.75;39.02;98669.88;5099729;28;20040;-94
2021/07/26 09:50:34;;;;;;;15.27;6.70;;;;;;;27.60;40.29;98661.34;5118204;27;20066;-93
2021/07/26 09:53:12;;;;;;;13.25;6.45;;;;;;;27.62;40.09;98672.13;5116795;28;20039;-94
2021/07/26 09:55:41;;;;;;;14.63;7.20;;;;;;;27.71;39.09;98656.69;5115381;28;20032;-93
2021/07/26 09:58:09;;;;;;;17.02;7.30;;;;;;;27.55;40.17;98650.03;5117494;28;20050;-95
2021/07/26 10:00:36;;;;;;;20.75;6.60;;;;;;;27.44;39.41;98642.06;5114992;28;20035;-93
2021/07/26 10:03:04;;;;;;;17.00;6.43;;;;;;;27.52;38.32;98644.88;5117436;28;20047;-92
2021/07/26 10:05:32;;;;;;;18.17;7.43;;;;;;;27.34;38.38;98650.28;5116487;28;20493;-92
2021/07/26 10:08:01;;;;;;;15.55;7.05;;;;;;;27.49;36.25;98668.91;5116976;28;20044;-93
2021/07/26 10:10:27;;;;;;;14.90;6.55;;;;;;;27.49;38.65;98669.75;5117032;28;20061;-95
2021/07/26 10:12:55;;;;;;;12.52;7.35;;;;;;;27.61;36.89;98671.28;5116895;28;20052;-95
2021/07/26 10:15:21;;;;;;;13.52;6.50;;;;;;;27.86;36.76;98672.44;5115764;28;20195;-94
2021/07/26 10:17:47;;;;;;;16.65;7.03;;;;;;;27.96;37.70;98650.53;5117027;28;20584;-94
2021/07/26 10:20:19;;;;;;;15.73;7.18;;;;;;;27.99;37.84;98657.53;5110489;28;20493;-94
2021/07/26 10:22:50;;;;;;;15.50;6.80;;;;;;;28.00;37.13;98654.66;5116594;28;20040;-91
2021/07/26 10:25:19;;;;;;;12.52;6.38;;;;;;;28.15;38.32;98656.84;5116146;28;20050;-93
2021/07/26 10:27:47;;;;;;;13.65;7.22;;;;;;;28.32;36.86;98646.91;5117292;28;20032;-93
2021/07/26 10:30:33;;;;;;;17.75;7.25;;;;;;;28.79;35.92;98658.44;5116085;28;20393;-93
2021/07/26 10:33:01;;;;;;;14.23;7.00;;;;;;;28.94;34.72;98636.81;5116004;28;20078;-94
2021/07/26 10:35:51;;;;;;;16.83;7.03;;;;;;;28.80;32.95;98662.91;5121119;27;20088;-95
2021/07/26 10:38:50;;;;;;;18.40;7.05;;;;;;;28.54;31.55;98645.59;5116565;28;20099;-94
2021/07/26 10:41:55;;;;;;;17.05;6.95;;;;;;;28.67;31.91;98668.78;5113328;28;20047;-94
2021/07/26 10:44:43;;;;;;;17.63;7.00;;;;;;;28.69;31.91;98671.34;5115617;28;20040;-94
2021/07/26 10:47:15;;;;;;;20.15;7.53;;;;;;;28.74;31.46;98671.75;5112078;28;20040;-95
2021/07/26 10:50:09;;;;;;;12.57;6.47;;;;;;;28.82;33.01;98671.81;5117075;28;20066;-94
2021/07/26 10:52:48;;;;;;;19.60;8.18;;;;;;;28.81;32.49;98641.88;5112580;27;20422;-95
2021/07/26 10:55:53;;;;;;;17.88;6.82;;;;;;;29.10;32.19;98668.91;5115956;28;20048;-94
2021/07/26 10:59:01;;;;;;;10.10;6.65;;;;;;;29.19;31.11;98657.03;5088902;28;20127;-94
2021/07/26 11:01:57;;;;;;;12.50;6.70;;;;;;;29.23;30.39;98621.94;5113733;28;20039;-92
2021/07/26 11:04:36;;;;;;;13.25;7.05;;;;;;;29.33;30.67;98641.00;5121465;28;20040;-96
2021/07/26 11:07:05;;;;;;;12.95;6.07;;;;;;;29.50;30.83;98637.28;5122535;28;20106;-95
2021/07/26 11:09:44;;;;;;;12.55;6.38;;;;;;;29.34;30.78;98623.50;5122694;28;20102;-95
2021/07/26 11:12:10;;;;;;;10.75;6.78;;;;;;;29.60;30.13;98628.91;5120882;28;20105;-96
2021/07/26 11:14:36;;;;;;;16.73;7.15;;;;;;;29.60;30.14;98618.84;5119650;28;20089;-96
2021/07/26 11:17:04;;;;;;;15.55;6.47;;;;;;;30.15;30.18;98633.03;5118302;28;20044;-94
2021/07/26 11:19:34;;;;;;;14.17;6.53;;;;;;;30.51;29.83;98628.06;5117024;28;20118;-96
2021/07/26 11:22:03;;;;;;;12.27;7.13;;;;;;;30.74;29.47;98630.97;5116662;28;20148;-94
2021/07/26 11:24:46;;;;;;;12.10;6.63;;;;;;;30.58;30.07;98617.25;5116830;28;20052;-96
2021/07/26 11:27:13;;;;;;;15.80;6.68;;;;;;;30.83;30.00;98618.94;5117906;28;20048;-93
2021/07/26 11:29:43;;;;;;;16.50;6.85;;;;;;;30.91;29.21;98590.66;5117983;28;20046;-95
2021/07/26 11:32:19;;;;;;;11.65;6.68;;;;;;;30.25;30.65;98592.56;5118679;28;20052;-95
2021/07/26 11:34:45;;;;;;;14.55;6.93;;;;;;;30.26;29.75;98597.88;5118258;28;20059;-94
2021/07/26 11:37:14;;;;;;;19.30;7.35;;;;;;;30.53;30.02;98597.72;5116914;28;20071;-95
2021/07/26 11:39:47;;;;;;;12.10;5.93;;;;;;;30.59;30.47;98588.81;5118513;28;20051;-94
2021/07/26 11:45:22;;;;;;;13.95;7.10;;;;;;;30.53;30.52;98601.31;5126020;27;20764;-95